createdAt,value
2023-03-26T00:01:17.115Z,4.61
2023-03-26T00:03:47.375Z,4.57
2023-03-26T00:06:15.530Z,4.53
2023-03-26T00:08:44.933Z,4.55
2023-03-26T00:11:15.197Z,4.58
2023-03-26T00:13:43.649Z,4.52
2023-03-26T00:16:15.436Z,4.56
2023-03-26T00:18:42.502Z,4.53
2023-03-26T00:21:12.713Z,4.55
2023-03-26T00:23:39.913Z,4.49
2023-03-26T00:26:10.468Z,4.55
2023-03-26T00:28:40.774Z,4.66
2023-03-26T00:31:09.314Z,4.80
2023-03-26T00:33:38.856Z,4.67
2023-03-26T00:36:09.730Z,4.51
2023-03-26T00:38:39.170Z,4.27
2023-03-26T00:41:17.762Z,4.30
2023-03-26T00:43:49.029Z,4.22
2023-03-26T00:46:17.485Z,4.28
2023-03-26T00:48:45.749Z,4.30
2023-03-26T00:51:17.532Z,4.29
2023-03-26T00:53:46.188Z,4.23
2023-03-26T00:56:12.960Z,4.26
2023-03-26T00:58:40.058Z,4.33
2023-03-26T01:01:09.619Z,4.38
2023-03-26T01:03:38.341Z,4.26
2023-03-26T01:06:14.349Z,4.12
2023-03-26T01:08:44.945Z,3.98
2023-03-26T01:11:16.463Z,3.86
2023-03-26T01:13:47.585Z,3.72
2023-03-26T01:16:33.722Z,3.53
2023-03-26T01:19:00.525Z,3.46
2023-03-26T01:21:30.263Z,3.64
2023-03-26T01:24:05.424Z,3.78
2023-03-26T01:26:43.819Z,3.87
2023-03-26T01:29:20.985Z,3.87
2023-03-26T01:31:57.172Z,3.82
2023-03-26T01:34:30.602Z,3.77
2023-03-26T01:37:13.213Z,3.81
2023-03-26T01:40:07.267Z,3.77
2023-03-26T01:42:43.593Z,3.82
2023-03-26T01:45:17.617Z,3.75
2023-03-26T01:47:45.564Z,3.68
2023-03-26T01:50:12.131Z,3.74
2023-03-26T01:52:39.252Z,3.69
2023-03-26T01:55:11.512Z,3.67
2023-03-26T01:57:55.023Z,3.64
2023-03-26T02:00:27.637Z,3.82
2023-03-26T02:03:46.887Z,3.76
2023-03-26T02:06:19.559Z,3.55
2023-03-26T02:08:54.231Z,3.44
2023-03-26T02:11:21.585Z,3.29
2023-03-26T02:13:51.726Z,3.22
2023-03-26T02:16:20.674Z,3.34
2023-03-26T02:18:51.214Z,3.59
2023-03-26T02:21:21.912Z,3.71
2023-03-26T02:23:50.667Z,3.77
2023-03-26T02:26:19.766Z,3.71
2023-03-26T02:28:46.403Z,3.67
2023-03-26T02:31:13.797Z,3.62
2023-03-26T02:33:40.707Z,3.56
2023-03-26T02:36:08.377Z,3.59
2023-03-26T02:38:35.569Z,3.66
2023-03-26T02:41:02.748Z,3.70
2023-03-26T02:43:29.264Z,3.72
2023-03-26T02:45:56.363Z,3.72
2023-03-26T02:48:23.112Z,3.70
2023-03-26T02:50:54.021Z,3.59
2023-03-26T02:53:30.152Z,3.50
2023-03-26T02:56:00.664Z,3.51
2023-03-26T02:58:30.303Z,3.48
2023-03-26T03:00:56.890Z,3.58
2023-03-26T03:03:27.825Z,3.74
2023-03-26T03:05:55.839Z,3.80
2023-03-26T03:08:26.486Z,3.79
2023-03-26T03:11:01.431Z,3.79
2023-03-26T03:13:28.481Z,3.70
2023-03-26T03:15:55.205Z,3.69
2023-03-26T03:18:22.347Z,3.75
2023-03-26T03:20:49.742Z,3.81
2023-03-26T03:23:16.145Z,3.91
2023-03-26T03:25:43.005Z,3.96
2023-03-26T03:28:09.502Z,4.00
2023-03-26T03:30:36.162Z,4.03
2023-03-26T03:33:03.271Z,4.05
2023-03-26T03:35:30.516Z,4.11
2023-03-26T03:37:57.897Z,4.12
2023-03-26T03:40:24.553Z,4.15
2023-03-26T03:42:51.461Z,4.18
2023-03-26T03:45:18.634Z,4.28
2023-03-26T03:47:45.517Z,4.36
2023-03-26T03:50:11.982Z,4.39
2023-03-26T03:52:38.371Z,4.33
2023-03-26T03:55:05.654Z,4.30
2023-03-26T03:57:33.398Z,4.26
2023-03-26T03:59:59.770Z,4.15
2023-03-26T04:02:30.639Z,4.08
2023-03-26T04:05:00.167Z,4.02
2023-03-26T04:07:31.410Z,4.01
2023-03-26T04:09:59.960Z,4.15
2023-03-26T04:12:30.927Z,4.27
2023-03-26T04:14:58.951Z,4.17
2023-03-26T04:17:25.539Z,4.24
2023-03-26T04:19:55.326Z,4.23
2023-03-26T04:22:22.330Z,4.16
2023-03-26T04:24:50.084Z,4.09
2023-03-26T04:27:25.872Z,3.96
2023-03-26T04:29:52.272Z,3.97
2023-03-26T04:32:30.207Z,3.96
2023-03-26T04:35:00.577Z,4.02
2023-03-26T04:37:34.749Z,3.97
2023-03-26T04:40:09.482Z,3.96
2023-03-26T04:42:46.596Z,3.93
2023-03-26T04:45:22.690Z,3.91
2023-03-26T04:47:50.820Z,3.98
2023-03-26T04:50:17.364Z,3.97
2023-03-26T04:52:45.153Z,4.07
2023-03-26T04:55:57.685Z,3.66
2023-03-26T04:58:30.075Z,3.99
2023-03-26T05:00:57.738Z,4.19
2023-03-26T05:03:25.601Z,4.26
2023-03-26T05:05:52.067Z,4.44
2023-03-26T05:08:19.114Z,4.55
2023-03-26T05:10:45.440Z,4.61
2023-03-26T05:13:11.929Z,4.55
2023-03-26T05:15:38.642Z,4.55
2023-03-26T05:18:05.101Z,4.57
2023-03-26T05:20:31.703Z,4.58
2023-03-26T05:22:58.574Z,4.63
2023-03-26T05:25:25.051Z,4.55
2023-03-26T05:27:52.020Z,4.19
2023-03-26T05:30:20.983Z,4.14
2023-03-26T05:32:49.408Z,4.34
2023-03-26T05:35:19.515Z,4.41
2023-03-26T05:37:47.349Z,4.50
2023-03-26T05:40:16.718Z,4.54
2023-03-26T05:42:43.644Z,4.56
2023-03-26T05:45:12.337Z,4.62
2023-03-26T05:47:39.013Z,4.48
2023-03-26T05:50:07.802Z,4.59
2023-03-26T05:52:34.480Z,4.69
2023-03-26T05:55:00.973Z,4.73
2023-03-26T05:57:30.594Z,4.73
2023-03-26T05:59:56.921Z,4.62
2023-03-26T06:02:23.678Z,4.65
2023-03-26T06:04:51.472Z,4.70
2023-03-26T06:07:19.615Z,4.95
2023-03-26T06:09:46.351Z,5.14
2023-03-26T06:12:16.347Z,5.17
2023-03-26T06:14:42.853Z,4.76
2023-03-26T06:17:10.060Z,4.72
2023-03-26T06:19:37.111Z,4.94
2023-03-26T06:22:04.257Z,5.15
2023-03-26T06:24:30.801Z,4.93
2023-03-26T06:26:57.433Z,4.85
2023-03-26T06:29:23.760Z,4.86
2023-03-26T06:31:50.565Z,4.82
2023-03-26T06:34:17.289Z,4.81
2023-03-26T06:36:43.616Z,4.86
2023-03-26T06:39:10.055Z,4.87
2023-03-26T06:41:36.740Z,4.84
2023-03-26T06:44:03.124Z,4.81
2023-03-26T06:46:29.487Z,4.80
2023-03-26T06:48:56.300Z,4.85
2023-03-26T06:51:22.705Z,4.88
2023-03-26T06:53:49.013Z,4.85
2023-03-26T06:56:15.989Z,4.85
2023-03-26T06:58:42.339Z,4.89
2023-03-26T07:01:08.790Z,4.91
2023-03-26T07:03:35.749Z,4.96
2023-03-26T07:06:02.161Z,4.97
2023-03-26T07:08:28.794Z,4.99
2023-03-26T07:10:55.306Z,5.08
2023-03-26T07:13:22.165Z,5.13
2023-03-26T07:15:49.265Z,5.13
2023-03-26T07:18:15.774Z,5.17
2023-03-26T07:20:44.842Z,5.21
2023-03-26T07:23:12.029Z,5.27
2023-03-26T07:25:39.253Z,5.49
2023-03-26T07:28:31.644Z,5.28
2023-03-26T07:31:15.697Z,5.29
2023-03-26T07:33:54.865Z,5.44
2023-03-26T07:36:28.521Z,5.51
2023-03-26T07:39:19.192Z,5.47
2023-03-26T07:41:51.054Z,5.53
2023-03-26T07:44:42.959Z,5.68
2023-03-26T07:47:33.630Z,5.55
2023-03-26T07:50:00.772Z,5.62
2023-03-26T07:52:27.475Z,5.61
2023-03-26T07:54:54.418Z,5.63
2023-03-26T07:57:45.733Z,5.51
2023-03-26T08:00:22.003Z,5.49
2023-03-26T08:03:13.842Z,5.60
2023-03-26T08:06:01.797Z,5.59
2023-03-26T08:08:52.351Z,5.82
2023-03-26T08:11:53.390Z,5.65
2023-03-26T08:14:25.829Z,5.70
2023-03-26T08:17:14.510Z,5.74
2023-03-26T08:19:46.226Z,5.75
2023-03-26T08:22:27.081Z,5.73
2023-03-26T08:25:02.705Z,5.82
2023-03-26T08:27:38.261Z,5.94
2023-03-26T08:30:14.855Z,5.89
2023-03-26T08:32:42.168Z,5.84
2023-03-26T08:35:13.288Z,5.82
2023-03-26T08:37:39.611Z,5.78
2023-03-26T08:40:07.068Z,5.79
2023-03-26T08:42:52.114Z,5.80
2023-03-26T08:45:27.917Z,5.61
2023-03-26T08:48:06.424Z,5.56
2023-03-26T08:51:11.145Z,5.44
2023-03-26T08:54:09.547Z,5.51
2023-03-26T08:56:51.749Z,5.27
2023-03-26T08:59:23.891Z,5.26
2023-03-26T09:02:12.882Z,5.13
2023-03-26T09:04:44.908Z,5.27
2023-03-26T09:07:48.620Z,5.24
2023-03-26T09:10:43.276Z,5.42
2023-03-26T09:13:09.921Z,5.46
2023-03-26T09:16:06.248Z,5.60
2023-03-26T09:19:07.105Z,5.48
2023-03-26T09:21:54.600Z,5.55
2023-03-26T09:24:33.189Z,5.60
2023-03-26T09:27:07.655Z,5.72
2023-03-26T09:30:01.695Z,5.74
2023-03-26T09:32:39.956Z,5.61
2023-03-26T09:35:14.070Z,5.77
2023-03-26T09:38:00.213Z,5.74
2023-03-26T09:40:57.161Z,5.79
2023-03-26T09:44:08.144Z,5.84
2023-03-26T09:46:50.142Z,5.81
2023-03-26T09:49:22.768Z,5.70
2023-03-26T09:52:21.740Z,5.74
2023-03-26T09:55:23.272Z,6.01
2023-03-26T09:58:02.451Z,6.12
2023-03-26T10:00:41.419Z,6.46
2023-03-26T10:03:26.997Z,6.71
2023-03-26T10:05:59.687Z,6.72
2023-03-26T10:08:32.449Z,6.95
2023-03-26T10:11:17.494Z,7.22
2023-03-26T10:14:25.266Z,7.89
2023-03-26T10:17:28.700Z,7.61
2023-03-26T10:20:09.309Z,7.98
2023-03-26T10:22:53.446Z,8.40
2023-03-26T10:25:41.948Z,8.64
2023-03-26T10:28:23.340Z,8.65
2023-03-26T10:31:25.610Z,8.90
2023-03-26T10:33:59.463Z,9.06
2023-03-26T10:36:36.657Z,9.26
2023-03-26T10:39:37.722Z,8.97
2023-03-26T10:42:23.624Z,9.43
2023-03-26T10:45:24.856Z,9.86
2023-03-26T10:48:26.995Z,9.58
2023-03-26T10:51:13.492Z,9.99
2023-03-26T10:54:11.129Z,9.44
2023-03-26T10:56:49.730Z,9.29
2023-03-26T10:59:17.661Z,8.57
2023-03-26T11:01:53.747Z,8.34
2023-03-26T11:04:58.018Z,7.86
2023-03-26T11:07:46.722Z,7.96
2023-03-26T11:10:40.971Z,8.20
2023-03-26T11:13:33.294Z,8.19
2023-03-26T11:16:07.219Z,7.26
2023-03-26T11:18:47.648Z,6.56
2023-03-26T11:21:26.095Z,6.00
2023-03-26T11:24:17.919Z,5.83
2023-03-26T11:27:14.854Z,5.81
2023-03-26T11:29:45.560Z,5.87
2023-03-26T11:32:26.057Z,5.83
2023-03-26T11:35:02.622Z,6.08
2023-03-26T11:37:58.965Z,6.38
2023-03-26T11:40:30.009Z,6.84
2023-03-26T11:43:01.872Z,6.83
2023-03-26T11:45:42.307Z,7.14
2023-03-26T11:48:17.934Z,7.49
2023-03-26T11:50:48.316Z,7.62
2023-03-26T11:53:20.347Z,8.22
2023-03-26T11:56:16.367Z,8.37
2023-03-26T11:58:53.361Z,9.63
2023-03-26T12:01:30.685Z,9.46
2023-03-26T12:04:13.998Z,9.29
2023-03-26T12:06:52.593Z,9.53
2023-03-26T12:09:20.408Z,9.03
2023-03-26T12:11:49.626Z,9.33
2023-03-26T12:14:23.232Z,9.21
2023-03-26T12:17:08.180Z,9.30
2023-03-26T12:19:42.413Z,10.21
2023-03-26T12:22:29.947Z,11.40
2023-03-26T12:25:09.893Z,11.65
2023-03-26T12:27:37.903Z,11.11
2023-03-26T12:30:23.434Z,9.92
2023-03-26T12:32:53.060Z,9.27
2023-03-26T12:35:27.038Z,8.91
2023-03-26T12:37:56.136Z,9.17
2023-03-26T12:40:35.854Z,9.27
2023-03-26T12:44:47.435Z,9.04
2023-03-26T12:47:56.140Z,9.36
2023-03-26T12:48:45.606Z,9.28
2023-03-26T12:51:26.262Z,9.74
2023-03-26T12:54:13.934Z,9.33
2023-03-26T12:57:12.264Z,10.14
2023-03-26T13:00:21.384Z,10.68
2023-03-26T13:03:10.307Z,11.00
2023-03-26T13:06:08.549Z,10.59
2023-03-26T13:08:39.417Z,10.84
2023-03-26T13:11:30.404Z,10.57
2023-03-26T13:14:25.480Z,10.82
2023-03-26T13:17:10.601Z,10.90
2023-03-26T13:19:43.855Z,10.58
2023-03-26T13:22:10.134Z,11.13
2023-03-26T13:25:00.156Z,11.34
2023-03-26T13:27:44.674Z,11.57
2023-03-26T13:30:28.140Z,11.59
2023-03-26T13:33:04.787Z,11.63
2023-03-26T13:35:47.207Z,11.56
2023-03-26T13:38:20.800Z,11.70
2023-03-26T13:41:02.461Z,11.61
2023-03-26T13:43:36.408Z,11.55
2023-03-26T13:46:08.567Z,11.66
2023-03-26T13:48:47.614Z,11.78
2023-03-26T13:51:45.557Z,11.72
2023-03-26T13:54:31.051Z,11.68
2023-03-26T13:57:31.723Z,11.75
2023-03-26T14:00:12.841Z,11.76
2023-03-26T14:02:41.403Z,11.97
2023-03-26T14:05:22.234Z,12.03
2023-03-26T14:07:52.696Z,11.87
2023-03-26T14:10:34.353Z,12.18
2023-03-26T14:13:04.531Z,12.23
2023-03-26T14:15:36.632Z,12.37
2023-03-26T14:18:25.279Z,12.06
2023-03-26T14:21:10.473Z,12.34
2023-03-26T14:23:49.277Z,12.39
2023-03-26T14:26:33.966Z,12.40
2023-03-26T14:29:12.207Z,12.24
2023-03-26T14:31:41.588Z,12.19
2023-03-26T14:34:45.862Z,11.96
2023-03-26T14:37:43.422Z,12.16
2023-03-26T14:41:01.786Z,11.53
2023-03-26T14:43:43.227Z,11.82
2023-03-26T14:46:35.088Z,12.13
2023-03-26T14:49:28.929Z,11.69
2023-03-26T14:52:02.276Z,10.73
2023-03-26T14:54:33.517Z,10.87
2023-03-26T14:57:12.967Z,11.53
2023-03-26T14:59:54.528Z,11.48
2023-03-26T15:02:42.568Z,11.93
2023-03-26T15:05:27.722Z,12.03
2023-03-26T15:08:19.254Z,12.15
2023-03-26T15:11:10.412Z,12.49
2023-03-26T15:14:08.073Z,12.46
2023-03-26T15:16:59.104Z,12.13
2023-03-26T15:19:38.217Z,11.97
2023-03-26T15:22:37.745Z,11.61
2023-03-26T15:25:25.630Z,11.77
2023-03-26T15:27:58.167Z,11.76
2023-03-26T15:30:34.739Z,12.07
2023-03-26T15:33:44.127Z,11.90
2023-03-26T15:36:41.847Z,11.62
2023-03-26T15:39:17.952Z,11.53
2023-03-26T15:42:06.474Z,11.41
2023-03-26T15:44:47.203Z,11.12
2023-03-26T15:47:48.356Z,10.73
2023-03-26T15:50:35.850Z,10.87
2023-03-26T15:53:23.402Z,10.98
2023-03-26T15:56:03.664Z,10.96
2023-03-26T15:58:55.126Z,10.97
2023-03-26T16:01:28.438Z,11.11
2023-03-26T16:04:09.042Z,11.12
2023-03-26T16:06:48.099Z,11.10
2023-03-26T16:09:32.595Z,11.19
2023-03-26T16:12:23.650Z,10.92
2023-03-26T16:15:23.772Z,10.66
2023-03-26T16:18:09.604Z,10.66
2023-03-26T16:20:50.861Z,10.32
2023-03-26T16:23:55.377Z,9.94
2023-03-26T16:26:54.544Z,9.28
2023-03-26T16:29:27.394Z,9.03
2023-03-26T16:32:16.472Z,9.04
2023-03-26T16:34:48.971Z,8.98
2023-03-26T16:37:36.934Z,8.93
2023-03-26T16:40:22.657Z,8.82
2023-03-26T16:42:51.447Z,8.70
2023-03-26T16:45:29.649Z,8.47
2023-03-26T16:48:05.556Z,8.54
2023-03-26T16:50:48.851Z,8.63
2023-03-26T16:53:29.962Z,8.56
2023-03-26T16:56:02.490Z,8.54
2023-03-26T16:58:34.472Z,8.54
2023-03-26T17:01:42.760Z,8.48
2023-03-26T17:04:23.575Z,8.33
2023-03-26T17:07:13.938Z,8.04
2023-03-26T17:09:59.230Z,7.82
2023-03-26T17:12:36.975Z,7.56
2023-03-26T17:15:18.748Z,7.31
2023-03-26T17:18:13.923Z,7.20
2023-03-26T17:21:04.884Z,7.22
2023-03-26T17:23:58.017Z,7.02
2023-03-26T17:26:29.676Z,7.04
2023-03-26T17:29:20.965Z,7.05
2023-03-26T17:32:00.419Z,6.91
2023-03-26T17:34:39.064Z,6.66
2023-03-26T17:37:48.308Z,6.61
2023-03-26T17:40:49.089Z,6.47
2023-03-26T17:43:38.021Z,6.34
2023-03-26T17:46:26.766Z,6.25
2023-03-26T17:49:13.324Z,6.36
2023-03-26T17:51:52.924Z,6.39
2023-03-26T17:54:22.043Z,6.43
2023-03-26T17:56:51.192Z,6.42
2023-03-26T17:59:23.687Z,6.00
2023-03-26T18:02:00.816Z,5.91
2023-03-26T18:04:38.140Z,5.97
2023-03-26T18:07:11.813Z,5.92
2023-03-26T18:10:33.460Z,5.99
2023-03-26T18:13:28.776Z,5.86
2023-03-26T18:16:13.079Z,5.98
2023-03-26T18:18:45.460Z,5.96
2023-03-26T18:21:21.711Z,5.95
2023-03-26T18:23:50.531Z,5.93
2023-03-26T18:26:22.850Z,5.72
2023-03-26T18:29:08.057Z,5.68
2023-03-26T18:31:34.862Z,5.64
2023-03-26T18:34:11.573Z,5.61
2023-03-26T18:36:39.155Z,5.42
2023-03-26T18:39:12.497Z,5.56
2023-03-26T18:41:42.215Z,5.36
2023-03-26T18:44:15.611Z,5.29
2023-03-26T18:46:43.552Z,5.24
2023-03-26T18:49:16.972Z,5.25
2023-03-26T18:51:56.166Z,5.30
2023-03-26T18:54:24.129Z,5.22
2023-03-26T18:56:52.619Z,5.11
2023-03-26T18:59:31.811Z,5.03
2023-03-26T19:02:13.661Z,5.06
2023-03-26T19:04:46.164Z,5.20
2023-03-26T19:07:16.987Z,5.23
2023-03-26T19:09:44.082Z,5.19
2023-03-26T19:12:28.687Z,5.19
2023-03-26T19:14:56.279Z,5.23
2023-03-26T19:17:26.477Z,5.03
2023-03-26T19:19:55.115Z,5.00
2023-03-26T19:22:25.559Z,4.93
2023-03-26T19:25:01.103Z,4.97
2023-03-26T19:27:27.901Z,5.06
2023-03-26T19:29:54.686Z,5.02
2023-03-26T19:32:29.743Z,4.98
2023-03-26T19:34:59.807Z,5.04
2023-03-26T19:37:31.885Z,5.00
2023-03-26T19:40:14.031Z,5.03
2023-03-26T19:42:44.922Z,5.05
2023-03-26T19:45:18.497Z,4.92
2023-03-26T19:47:50.503Z,4.91
2023-03-26T19:50:27.585Z,4.89
2023-03-26T19:53:22.293Z,5.03
2023-03-26T19:55:59.704Z,5.06
2023-03-26T19:58:27.110Z,5.07
2023-03-26T20:00:55.957Z,5.06
2023-03-26T20:03:28.426Z,4.97
2023-03-26T20:05:55.138Z,4.93
2023-03-26T20:08:26.808Z,4.94
2023-03-26T20:10:55.825Z,4.93
2023-03-26T20:13:22.542Z,4.93
2023-03-26T20:16:05.557Z,4.82
2023-03-26T20:18:34.024Z,4.79
2023-03-26T20:21:00.825Z,4.91
2023-03-26T20:23:28.832Z,4.81
2023-03-26T20:25:55.555Z,4.80
2023-03-26T20:28:22.594Z,4.80
2023-03-26T20:30:50.049Z,4.76
2023-03-26T20:33:27.367Z,4.69
2023-03-26T20:35:55.339Z,4.65
2023-03-26T20:38:32.932Z,4.59
2023-03-26T20:41:06.544Z,4.65
2023-03-26T20:43:32.861Z,4.60
2023-03-26T20:45:59.644Z,4.58
2023-03-26T20:48:28.702Z,4.65
2023-03-26T20:50:56.951Z,4.68
2023-03-26T20:53:23.682Z,4.68
2023-03-26T20:55:51.711Z,4.58
2023-03-26T20:58:31.856Z,4.59
2023-03-26T21:01:00.882Z,4.48
2023-03-26T21:03:27.417Z,4.50
2023-03-26T21:05:53.779Z,4.59
2023-03-26T21:08:21.181Z,4.65
2023-03-26T21:10:47.889Z,4.58
2023-03-26T21:13:37.213Z,4.62
2023-03-26T21:16:04.282Z,4.57
2023-03-26T21:18:31.122Z,4.52
2023-03-26T21:21:34.720Z,4.44
2023-03-26T21:24:21.840Z,4.35
2023-03-26T21:27:17.959Z,4.40
2023-03-26T21:29:44.562Z,4.36
2023-03-26T21:32:12.184Z,4.38
2023-03-26T21:34:47.891Z,4.45
2023-03-26T21:37:22.613Z,4.52
2023-03-26T21:39:49.516Z,4.51
2023-03-26T21:42:16.778Z,4.53
2023-03-26T21:44:43.420Z,4.48
2023-03-26T21:47:10.332Z,4.46
2023-03-26T21:49:38.407Z,4.47
2023-03-26T21:52:05.137Z,4.52
2023-03-26T21:54:33.080Z,4.48
2023-03-26T21:57:21.353Z,4.46
2023-03-26T22:00:15.367Z,4.51
2023-03-26T22:03:05.237Z,4.40
2023-03-26T22:06:07.355Z,4.41
2023-03-26T22:08:38.516Z,4.42
2023-03-26T22:11:06.437Z,4.38
2023-03-26T22:13:36.236Z,4.41
2023-03-26T22:16:02.848Z,4.38
2023-03-26T22:18:29.989Z,4.35
2023-03-26T22:20:58.276Z,4.37
2023-03-26T22:23:24.846Z,4.32
2023-03-26T22:25:51.772Z,4.28
2023-03-26T22:28:19.171Z,4.29
2023-03-26T22:30:46.220Z,4.31
2023-03-26T22:33:13.090Z,4.31
2023-03-26T22:35:41.590Z,4.26
2023-03-26T22:38:09.517Z,4.27
2023-03-26T22:40:36.486Z,4.23
2023-03-26T22:43:03.005Z,4.21
2023-03-26T22:45:29.998Z,4.17
2023-03-26T22:48:03.073Z,4.15
2023-03-26T22:50:29.700Z,4.13
2023-03-26T22:52:56.219Z,4.10
2023-03-26T22:55:28.517Z,4.08
2023-03-26T22:57:56.699Z,4.04
2023-03-26T23:00:23.539Z,4.02
2023-03-26T23:02:50.049Z,3.97
2023-03-26T23:05:20.187Z,3.96
2023-03-26T23:07:48.714Z,3.98
2023-03-26T23:10:15.413Z,3.94
2023-03-26T23:12:41.756Z,3.92
2023-03-26T23:15:09.510Z,3.87
2023-03-26T23:17:37.987Z,3.87
2023-03-26T23:20:11.950Z,3.82
2023-03-26T23:22:38.652Z,3.80
2023-03-26T23:25:05.479Z,3.83
2023-03-26T23:27:32.824Z,3.79
2023-03-26T23:29:59.666Z,3.79
2023-03-26T23:32:25.975Z,3.78
2023-03-26T23:34:52.599Z,3.74
2023-03-26T23:37:23.479Z,3.75
2023-03-26T23:39:50.811Z,3.73
2023-03-26T23:42:17.454Z,3.80
2023-03-26T23:44:57.172Z,3.76
2023-03-26T23:47:23.913Z,3.74
2023-03-26T23:49:50.467Z,3.74
2023-03-26T23:52:17.157Z,3.80
2023-03-26T23:54:44.476Z,3.89
2023-03-26T23:57:11.235Z,3.84
2023-03-26T23:59:38.556Z,3.97
